sensor_id;sensor_type;location;lat;lon;timestamp;P1;durP1;ratioP1;P2;durP2;ratioP2
22336;SDS011;14992;50.844;4.418;2023-05-02T00:00:21;64.72;;;26.63;;
22336;SDS011;14992;50.844;4.418;2023-05-02T00:02:50;63.25;;;26.88;;
22336;SDS011;14992;50.844;4.418;2023-05-02T00:05:19;67.22;;;26.63;;
22336;SDS011;14992;50.844;4.418;2023-05-02T00:07:51;68.10;;;27.27;;
22336;SDS011;14992;50.844;4.418;2023-05-02T00:10:20;65.20;;;25.75;;
22336;SDS011;14992;50.844;4.418;2023-05-02T00:12:48;52.20;;;24.02;;
22336;SDS011;14992;50.844;4.418;2023-05-02T00:15:17;57.97;;;25.63;;
22336;SDS011;14992;50.844;4.418;2023-05-02T00:17:47;49.55;;;23.70;;
22336;SDS011;14992;50.844;4.418;2023-05-02T00:20:16;56.17;;;23.80;;
22336;SDS011;14992;50.844;4.418;2023-05-02T00:22:44;51.42;;;23.50;;
22336;SDS011;14992;50.844;4.418;2023-05-02T00:25:15;58.38;;;24.05;;
22336;SDS011;14992;50.844;4.418;2023-05-02T00:27:46;49.92;;;21.38;;
22336;SDS011;14992;50.844;4.418;2023-05-02T00:30:20;48.67;;;21.02;;
22336;SDS011;14992;50.844;4.418;2023-05-02T00:32:49;51.03;;;22.25;;
22336;SDS011;14992;50.844;4.418;2023-05-02T00:35:20;51.85;;;20.90;;
22336;SDS011;14992;50.844;4.418;2023-05-02T00:37:49;41.25;;;19.65;;
22336;SDS011;14992;50.844;4.418;2023-05-02T00:40:19;44.28;;;19.30;;
22336;SDS011;14992;50.844;4.418;2023-05-02T00:42:49;43.10;;;21.27;;
22336;SDS011;14992;50.844;4.418;2023-05-02T00:45:18;45.30;;;19.35;;
22336;SDS011;14992;50.844;4.418;2023-05-02T00:47:48;43.75;;;19.00;;
22336;SDS011;14992;50.844;4.418;2023-05-02T00:50:17;43.72;;;19.77;;
22336;SDS011;14992;50.844;4.418;2023-05-02T00:52:46;40.30;;;18.73;;
22336;SDS011;14992;50.844;4.418;2023-05-02T00:55:16;41.83;;;18.77;;
22336;SDS011;14992;50.844;4.418;2023-05-02T00:57:47;41.30;;;19.02;;
22336;SDS011;14992;50.844;4.418;2023-05-02T01:00:16;33.67;;;15.10;;
22336;SDS011;14992;50.844;4.418;2023-05-02T01:02:47;42.38;;;19.15;;
22336;SDS011;14992;50.844;4.418;2023-05-02T01:05:26;41.03;;;18.80;;
22336;SDS011;14992;50.844;4.418;2023-05-02T01:08:02;40.13;;;18.13;;
22336;SDS011;14992;50.844;4.418;2023-05-02T01:10:42;42.95;;;18.33;;
22336;SDS011;14992;50.844;4.418;2023-05-02T01:13:18;45.97;;;17.33;;
22336;SDS011;14992;50.844;4.418;2023-05-02T01:15:49;39.42;;;18.55;;
22336;SDS011;14992;50.844;4.418;2023-05-02T01:18:21;39.20;;;18.13;;
22336;SDS011;14992;50.844;4.418;2023-05-02T01:20:54;47.45;;;20.02;;
22336;SDS011;14992;50.844;4.418;2023-05-02T01:23:27;40.72;;;18.63;;
22336;SDS011;14992;50.844;4.418;2023-05-02T01:26:12;40.08;;;17.25;;
22336;SDS011;14992;50.844;4.418;2023-05-02T01:31:38;43.13;;;18.40;;
22336;SDS011;14992;50.844;4.418;2023-05-02T01:34:09;39.92;;;19.40;;
22336;SDS011;14992;50.844;4.418;2023-05-02T01:36:40;43.20;;;19.70;;
22336;SDS011;14992;50.844;4.418;2023-05-02T01:39:13;39.80;;;19.13;;
22336;SDS011;14992;50.844;4.418;2023-05-02T01:41:45;40.13;;;18.23;;
22336;SDS011;14992;50.844;4.418;2023-05-02T01:44:19;40.72;;;18.95;;
22336;SDS011;14992;50.844;4.418;2023-05-02T01:46:50;39.10;;;17.23;;
22336;SDS011;14992;50.844;4.418;2023-05-02T01:49:22;36.97;;;18.45;;
22336;SDS011;14992;50.844;4.418;2023-05-02T01:51:52;35.28;;;15.77;;
22336;SDS011;14992;50.844;4.418;2023-05-02T01:54:22;35.88;;;16.88;;
22336;SDS011;14992;50.844;4.418;2023-05-02T01:56:53;35.60;;;17.33;;
22336;SDS011;14992;50.844;4.418;2023-05-02T01:59:25;41.17;;;17.95;;
22336;SDS011;14992;50.844;4.418;2023-05-02T02:01:55;38.13;;;16.75;;
22336;SDS011;14992;50.844;4.418;2023-05-02T02:04:26;41.13;;;18.92;;
22336;SDS011;14992;50.844;4.418;2023-05-02T02:06:57;36.90;;;18.70;;
22336;SDS011;14992;50.844;4.418;2023-05-02T02:09:30;36.38;;;16.67;;
22336;SDS011;14992;50.844;4.418;2023-05-02T02:12:01;35.90;;;17.70;;
22336;SDS011;14992;50.844;4.418;2023-05-02T02:14:36;36.95;;;17.63;;
22336;SDS011;14992;50.844;4.418;2023-05-02T02:17:10;35.83;;;18.15;;
22336;SDS011;14992;50.844;4.418;2023-05-02T02:19:42;36.17;;;17.42;;
22336;SDS011;14992;50.844;4.418;2023-05-02T02:22:13;40.92;;;17.92;;
22336;SDS011;14992;50.844;4.418;2023-05-02T02:24:44;43.75;;;18.92;;
22336;SDS011;14992;50.844;4.418;2023-05-02T02:27:14;44.72;;;19.20;;
22336;SDS011;14992;50.844;4.418;2023-05-02T02:29:45;46.53;;;19.63;;
22336;SDS011;14992;50.844;4.418;2023-05-02T02:32:14;40.00;;;19.35;;
22336;SDS011;14992;50.844;4.418;2023-05-02T02:34:43;43.25;;;19.40;;
22336;SDS011;14992;50.844;4.418;2023-05-02T02:37:13;47.15;;;19.20;;
22336;SDS011;14992;50.844;4.418;2023-05-02T02:39:49;46.33;;;20.52;;
22336;SDS011;14992;50.844;4.418;2023-05-02T02:42:28;42.17;;;17.98;;
22336;SDS011;14992;50.844;4.418;2023-05-02T02:45:11;36.72;;;18.27;;
22336;SDS011;14992;50.844;4.418;2023-05-02T02:47:51;39.83;;;18.23;;
22336;SDS011;14992;50.844;4.418;2023-05-02T02:50:26;43.97;;;18.50;;
22336;SDS011;14992;50.844;4.418;2023-05-02T02:52:59;40.95;;;19.08;;
22336;SDS011;14992;50.844;4.418;2023-05-02T02:55:35;38.80;;;18.90;;
22336;SDS011;14992;50.844;4.418;2023-05-02T02:58:12;38.83;;;18.38;;
22336;SDS011;14992;50.844;4.418;2023-05-02T03:00:48;38.45;;;18.63;;
22336;SDS011;14992;50.844;4.418;2023-05-02T03:03:19;34.58;;;16.70;;
22336;SDS011;14992;50.844;4.418;2023-05-02T03:05:55;31.17;;;14.82;;
22336;SDS011;14992;50.844;4.418;2023-05-02T03:08:25;28.13;;;14.90;;
22336;SDS011;14992;50.844;4.418;2023-05-02T03:10:54;31.73;;;15.50;;
22336;SDS011;14992;50.844;4.418;2023-05-02T03:13:23;33.67;;;15.25;;
22336;SDS011;14992;50.844;4.418;2023-05-02T03:16:05;32.67;;;16.05;;
22336;SDS011;14992;50.844;4.418;2023-05-02T03:18:50;33.70;;;15.20;;
22336;SDS011;14992;50.844;4.418;2023-05-02T03:21:19;33.17;;;15.27;;
22336;SDS011;14992;50.844;4.418;2023-05-02T03:23:48;32.72;;;15.20;;
22336;SDS011;14992;50.844;4.418;2023-05-02T03:26:18;32.85;;;15.70;;
22336;SDS011;14992;50.844;4.418;2023-05-02T03:28:47;33.53;;;16.52;;
22336;SDS011;14992;50.844;4.418;2023-05-02T03:31:25;35.90;;;15.75;;
22336;SDS011;14992;50.844;4.418;2023-05-02T03:33:54;35.55;;;15.85;;
22336;SDS011;14992;50.844;4.418;2023-05-02T03:36:23;28.83;;;14.13;;
22336;SDS011;14992;50.844;4.418;2023-05-02T03:38:54;33.97;;;15.32;;
22336;SDS011;14992;50.844;4.418;2023-05-02T03:41:23;33.72;;;15.60;;
22336;SDS011;14992;50.844;4.418;2023-05-02T03:44:00;29.98;;;14.65;;
22336;SDS011;14992;50.844;4.418;2023-05-02T03:46:31;31.52;;;14.38;;
22336;SDS011;14992;50.844;4.418;2023-05-02T03:49:04;32.13;;;15.48;;
22336;SDS011;14992;50.844;4.418;2023-05-02T03:51:33;30.95;;;14.52;;
22336;SDS011;14992;50.844;4.418;2023-05-02T03:54:03;36.85;;;16.38;;
22336;SDS011;14992;50.844;4.418;2023-05-02T03:56:32;46.40;;;20.15;;
22336;SDS011;14992;50.844;4.418;2023-05-02T03:59:13;38.50;;;16.92;;
22336;SDS011;14992;50.844;4.418;2023-05-02T04:01:47;34.58;;;16.10;;
22336;SDS011;14992;50.844;4.418;2023-05-02T04:04:20;39.40;;;18.40;;
22336;SDS011;14992;50.844;4.418;2023-05-02T04:06:51;37.08;;;17.80;;
22336;SDS011;14992;50.844;4.418;2023-05-02T04:09:21;39.55;;;17.50;;
22336;SDS011;14992;50.844;4.418;2023-05-02T04:12:07;40.22;;;18.25;;
22336;SDS011;14992;50.844;4.418;2023-05-02T04:14:40;39.20;;;17.65;;
22336;SDS011;14992;50.844;4.418;2023-05-02T04:17:11;35.05;;;16.40;;
22336;SDS011;14992;50.844;4.418;2023-05-02T04:19:45;40.75;;;18.33;;
22336;SDS011;14992;50.844;4.418;2023-05-02T04:22:15;44.00;;;20.60;;
22336;SDS011;14992;50.844;4.418;2023-05-02T04:24:51;40.83;;;18.10;;
22336;SDS011;14992;50.844;4.418;2023-05-02T04:27:21;42.03;;;19.35;;
22336;SDS011;14992;50.844;4.418;2023-05-02T04:29:50;40.55;;;18.25;;
22336;SDS011;14992;50.844;4.418;2023-05-02T04:32:22;53.40;;;22.13;;
22336;SDS011;14992;50.844;4.418;2023-05-02T04:34:53;51.22;;;21.17;;
22336;SDS011;14992;50.844;4.418;2023-05-02T04:37:22;57.15;;;28.80;;
22336;SDS011;14992;50.844;4.418;2023-05-02T04:39:52;43.50;;;19.45;;
22336;SDS011;14992;50.844;4.418;2023-05-02T04:42:24;37.83;;;17.85;;
22336;SDS011;14992;50.844;4.418;2023-05-02T04:45:08;35.63;;;17.60;;
22336;SDS011;14992;50.844;4.418;2023-05-02T04:47:39;39.25;;;18.38;;
22336;SDS011;14992;50.844;4.418;2023-05-02T04:50:09;70.78;;;38.50;;
22336;SDS011;14992;50.844;4.418;2023-05-02T04:52:38;40.70;;;19.67;;
22336;SDS011;14992;50.844;4.418;2023-05-02T04:55:07;42.45;;;18.65;;
22336;SDS011;14992;50.844;4.418;2023-05-02T04:57:36;41.30;;;18.42;;
22336;SDS011;14992;50.844;4.418;2023-05-02T05:00:10;38.53;;;19.02;;
22336;SDS011;14992;50.844;4.418;2023-05-02T05:02:41;42.47;;;19.63;;
22336;SDS011;14992;50.844;4.418;2023-05-02T05:05:13;41.85;;;19.13;;
22336;SDS011;14992;50.844;4.418;2023-05-02T05:07:42;45.13;;;20.52;;
22336;SDS011;14992;50.844;4.418;2023-05-02T05:10:12;45.25;;;19.90;;
22336;SDS011;14992;50.844;4.418;2023-05-02T05:15:14;44.40;;;18.33;;
22336;SDS011;14992;50.844;4.418;2023-05-02T05:17:51;39.55;;;17.65;;
22336;SDS011;14992;50.844;4.418;2023-05-02T05:20:20;45.97;;;20.45;;
22336;SDS011;14992;50.844;4.418;2023-05-02T05:22:52;40.30;;;18.65;;
22336;SDS011;14992;50.844;4.418;2023-05-02T05:25:24;62.40;;;29.10;;
22336;SDS011;14992;50.844;4.418;2023-05-02T05:27:54;39.97;;;20.45;;
22336;SDS011;14992;50.844;4.418;2023-05-02T05:30:24;41.22;;;19.35;;
22336;SDS011;14992;50.844;4.418;2023-05-02T05:32:54;48.10;;;21.52;;
22336;SDS011;14992;50.844;4.418;2023-05-02T05:35:24;38.88;;;17.73;;
22336;SDS011;14992;50.844;4.418;2023-05-02T05:37:55;41.15;;;19.52;;
22336;SDS011;14992;50.844;4.418;2023-05-02T05:40:24;35.80;;;17.58;;
22336;SDS011;14992;50.844;4.418;2023-05-02T05:42:56;40.95;;;18.80;;
22336;SDS011;14992;50.844;4.418;2023-05-02T05:45:33;36.05;;;18.73;;
22336;SDS011;14992;50.844;4.418;2023-05-02T05:48:05;36.72;;;17.55;;
22336;SDS011;14992;50.844;4.418;2023-05-02T05:50:40;34.50;;;18.67;;
22336;SDS011;14992;50.844;4.418;2023-05-02T05:53:09;36.15;;;17.02;;
22336;SDS011;14992;50.844;4.418;2023-05-02T05:55:39;37.50;;;18.48;;
22336;SDS011;14992;50.844;4.418;2023-05-02T05:58:09;33.00;;;15.98;;
22336;SDS011;14992;50.844;4.418;2023-05-02T06:00:39;32.42;;;15.85;;
22336;SDS011;14992;50.844;4.418;2023-05-02T06:03:10;28.27;;;16.10;;
22336;SDS011;14992;50.844;4.418;2023-05-02T06:05:39;31.27;;;16.25;;
22336;SDS011;14992;50.844;4.418;2023-05-02T06:08:08;36.78;;;17.98;;
22336;SDS011;14992;50.844;4.418;2023-05-02T06:10:37;33.22;;;16.73;;
22336;SDS011;14992;50.844;4.418;2023-05-02T06:13:07;31.67;;;15.70;;
22336;SDS011;14992;50.844;4.418;2023-05-02T06:15:39;30.48;;;17.15;;
22336;SDS011;14992;50.844;4.418;2023-05-02T06:18:10;33.38;;;16.50;;
22336;SDS011;14992;50.844;4.418;2023-05-02T06:20:41;37.10;;;17.77;;
22336;SDS011;14992;50.844;4.418;2023-05-02T06:23:10;29.77;;;15.45;;
22336;SDS011;14992;50.844;4.418;2023-05-02T06:25:39;33.55;;;18.42;;
22336;SDS011;14992;50.844;4.418;2023-05-02T06:28:08;32.70;;;17.80;;
22336;SDS011;14992;50.844;4.418;2023-05-02T06:30:37;36.08;;;18.08;;
22336;SDS011;14992;50.844;4.418;2023-05-02T06:33:07;39.03;;;18.98;;
22336;SDS011;14992;50.844;4.418;2023-05-02T06:35:37;33.10;;;18.15;;
22336;SDS011;14992;50.844;4.418;2023-05-02T06:38:06;31.45;;;17.67;;
22336;SDS011;14992;50.844;4.418;2023-05-02T06:40:35;37.15;;;18.98;;
22336;SDS011;14992;50.844;4.418;2023-05-02T06:43:11;34.35;;;16.90;;
22336;SDS011;14992;50.844;4.418;2023-05-02T06:45:40;34.55;;;18.58;;
22336;SDS011;14992;50.844;4.418;2023-05-02T06:48:09;35.45;;;19.10;;
22336;SDS011;14992;50.844;4.418;2023-05-02T06:50:40;34.03;;;19.05;;
22336;SDS011;14992;50.844;4.418;2023-05-02T06:53:09;31.15;;;17.05;;
22336;SDS011;14992;50.844;4.418;2023-05-02T06:55:38;33.10;;;18.20;;
22336;SDS011;14992;50.844;4.418;2023-05-02T06:58:07;36.45;;;17.38;;
22336;SDS011;14992;50.844;4.418;2023-05-02T07:00:36;33.55;;;18.20;;
22336;SDS011;14992;50.844;4.418;2023-05-02T07:03:05;30.90;;;16.38;;
22336;SDS011;14992;50.844;4.418;2023-05-02T07:05:34;29.50;;;16.70;;
22336;SDS011;14992;50.844;4.418;2023-05-02T07:08:05;33.20;;;17.25;;
22336;SDS011;14992;50.844;4.418;2023-05-02T07:10:35;28.48;;;16.27;;
22336;SDS011;14992;50.844;4.418;2023-05-02T07:13:03;30.17;;;16.50;;
22336;SDS011;14992;50.844;4.418;2023-05-02T07:15:32;32.53;;;17.45;;
22336;SDS011;14992;50.844;4.418;2023-05-02T07:18:01;30.98;;;17.10;;
22336;SDS011;14992;50.844;4.418;2023-05-02T07:20:30;29.83;;;15.82;;
22336;SDS011;14992;50.844;4.418;2023-05-02T07:22:59;28.85;;;15.05;;
22336;SDS011;14992;50.844;4.418;2023-05-02T07:25:30;25.52;;;14.50;;
22336;SDS011;14992;50.844;4.418;2023-05-02T07:27:59;20.08;;;11.57;;
22336;SDS011;14992;50.844;4.418;2023-05-02T07:30:28;16.55;;;9.98;;
22336;SDS011;14992;50.844;4.418;2023-05-02T07:32:56;18.25;;;9.68;;
22336;SDS011;14992;50.844;4.418;2023-05-02T07:35:25;16.60;;;9.80;;
22336;SDS011;14992;50.844;4.418;2023-05-02T07:37:55;20.48;;;10.02;;
22336;SDS011;14992;50.844;4.418;2023-05-02T07:40:23;20.50;;;10.88;;
22336;SDS011;14992;50.844;4.418;2023-05-02T07:42:54;23.38;;;11.13;;
22336;SDS011;14992;50.844;4.418;2023-05-02T07:45:26;28.30;;;12.10;;
22336;SDS011;14992;50.844;4.418;2023-05-02T07:47:55;22.90;;;11.77;;
22336;SDS011;14992;50.844;4.418;2023-05-02T07:50:24;21.83;;;12.00;;
22336;SDS011;14992;50.844;4.418;2023-05-02T07:52:53;23.60;;;12.13;;
22336;SDS011;14992;50.844;4.418;2023-05-02T07:55:22;21.52;;;11.30;;
22336;SDS011;14992;50.844;4.418;2023-05-02T07:57:55;20.63;;;11.95;;
22336;SDS011;14992;50.844;4.418;2023-05-02T08:00:24;19.83;;;12.98;;
22336;SDS011;14992;50.844;4.418;2023-05-02T08:02:53;21.25;;;12.90;;
22336;SDS011;14992;50.844;4.418;2023-05-02T08:05:22;20.40;;;13.43;;
22336;SDS011;14992;50.844;4.418;2023-05-02T08:07:50;15.23;;;10.98;;
22336;SDS011;14992;50.844;4.418;2023-05-02T08:10:19;25.60;;;15.20;;
22336;SDS011;14992;50.844;4.418;2023-05-02T08:12:50;18.55;;;10.63;;
22336;SDS011;14992;50.844;4.418;2023-05-02T08:15:20;18.98;;;9.70;;
22336;SDS011;14992;50.844;4.418;2023-05-02T08:17:49;11.05;;;7.88;;
22336;SDS011;14992;50.844;4.418;2023-05-02T08:20:18;10.95;;;7.15;;
22336;SDS011;14992;50.844;4.418;2023-05-02T08:22:48;9.50;;;6.03;;
22336;SDS011;14992;50.844;4.418;2023-05-02T08:25:17;9.70;;;5.93;;
22336;SDS011;14992;50.844;4.418;2023-05-02T08:27:47;9.88;;;6.80;;
22336;SDS011;14992;50.844;4.418;2023-05-02T08:30:16;8.30;;;5.28;;
22336;SDS011;14992;50.844;4.418;2023-05-02T08:32:47;8.95;;;5.15;;
22336;SDS011;14992;50.844;4.418;2023-05-02T08:35:16;13.57;;;4.93;;
22336;SDS011;14992;50.844;4.418;2023-05-02T08:37:45;9.07;;;5.07;;
22336;SDS011;14992;50.844;4.418;2023-05-02T08:40:13;7.50;;;5.30;;
22336;SDS011;14992;50.844;4.418;2023-05-02T08:43:04;5.82;;;3.83;;
22336;SDS011;14992;50.844;4.418;2023-05-02T08:45:33;6.95;;;4.57;;
22336;SDS011;14992;50.844;4.418;2023-05-02T08:48:06;7.78;;;4.75;;
22336;SDS011;14992;50.844;4.418;2023-05-02T08:50:37;6.97;;;5.00;;
22336;SDS011;14992;50.844;4.418;2023-05-02T08:53:08;5.60;;;4.25;;
22336;SDS011;14992;50.844;4.418;2023-05-02T08:55:38;7.07;;;3.40;;
22336;SDS011;14992;50.844;4.418;2023-05-02T08:58:08;4.55;;;3.20;;
22336;SDS011;14992;50.844;4.418;2023-05-02T09:00:40;8.55;;;4.18;;
22336;SDS011;14992;50.844;4.418;2023-05-02T09:03:14;8.65;;;3.95;;
22336;SDS011;14992;50.844;4.418;2023-05-02T09:05:51;4.80;;;3.65;;
22336;SDS011;14992;50.844;4.418;2023-05-02T09:08:21;6.80;;;4.40;;
22336;SDS011;14992;50.844;4.418;2023-05-02T09:10:51;4.70;;;4.13;;
22336;SDS011;14992;50.844;4.418;2023-05-02T09:13:27;7.25;;;3.85;;
22336;SDS011;14992;50.844;4.418;2023-05-02T09:16:00;7.68;;;4.60;;
22336;SDS011;14992;50.844;4.418;2023-05-02T09:18:32;9.45;;;5.25;;
22336;SDS011;14992;50.844;4.418;2023-05-02T09:21:05;7.13;;;4.63;;
22336;SDS011;14992;50.844;4.418;2023-05-02T09:23:39;6.60;;;5.20;;
22336;SDS011;14992;50.844;4.418;2023-05-02T09:26:10;7.82;;;5.55;;
22336;SDS011;14992;50.844;4.418;2023-05-02T09:28:41;8.88;;;5.72;;
22336;SDS011;14992;50.844;4.418;2023-05-02T09:31:11;9.90;;;6.60;;
22336;SDS011;14992;50.844;4.418;2023-05-02T09:33:54;9.15;;;6.53;;
22336;SDS011;14992;50.844;4.418;2023-05-02T09:36:24;12.25;;;8.32;;
22336;SDS011;14992;50.844;4.418;2023-05-02T09:38:55;7.70;;;6.78;;
22336;SDS011;14992;50.844;4.418;2023-05-02T09:41:40;11.25;;;7.18;;
22336;SDS011;14992;50.844;4.418;2023-05-02T09:44:10;9.85;;;7.25;;
22336;SDS011;14992;50.844;4.418;2023-05-02T09:46:40;7.43;;;6.60;;
22336;SDS011;14992;50.844;4.418;2023-05-02T09:49:11;7.05;;;6.45;;
22336;SDS011;14992;50.844;4.418;2023-05-02T09:51:40;9.60;;;7.78;;
22336;SDS011;14992;50.844;4.418;2023-05-02T09:54:10;10.63;;;7.60;;
22336;SDS011;14992;50.844;4.418;2023-05-02T09:59:25;9.40;;;7.63;;
22336;SDS011;14992;50.844;4.418;2023-05-02T10:01:55;9.15;;;7.50;;
22336;SDS011;14992;50.844;4.418;2023-05-02T10:04:26;9.25;;;7.20;;
22336;SDS011;14992;50.844;4.418;2023-05-02T10:06:57;8.00;;;7.15;;
22336;SDS011;14992;50.844;4.418;2023-05-02T10:09:26;9.20;;;6.93;;
22336;SDS011;14992;50.844;4.418;2023-05-02T10:11:59;8.20;;;6.88;;
22336;SDS011;14992;50.844;4.418;2023-05-02T10:17:04;7.18;;;6.32;;
22336;SDS011;14992;50.844;4.418;2023-05-02T10:19:41;8.07;;;6.20;;
22336;SDS011;14992;50.844;4.418;2023-05-02T10:22:18;6.35;;;5.75;;
22336;SDS011;14992;50.844;4.418;2023-05-02T10:24:48;7.05;;;5.38;;
22336;SDS011;14992;50.844;4.418;2023-05-02T10:27:18;9.27;;;5.35;;
22336;SDS011;14992;50.844;4.418;2023-05-02T10:29:46;7.25;;;5.57;;
22336;SDS011;14992;50.844;4.418;2023-05-02T10:32:18;6.63;;;5.38;;
22336;SDS011;14992;50.844;4.418;2023-05-02T10:34:50;6.25;;;5.03;;
22336;SDS011;14992;50.844;4.418;2023-05-02T10:39:51;6.82;;;5.50;;
22336;SDS011;14992;50.844;4.418;2023-05-02T10:42:20;9.15;;;6.00;;
22336;SDS011;14992;50.844;4.418;2023-05-02T10:44:49;9.82;;;6.35;;
22336;SDS011;14992;50.844;4.418;2023-05-02T10:47:19;7.15;;;5.32;;
22336;SDS011;14992;50.844;4.418;2023-05-02T10:49:49;5.40;;;4.20;;
22336;SDS011;14992;50.844;4.418;2023-05-02T10:52:27;8.38;;;5.05;;
22336;SDS011;14992;50.844;4.418;2023-05-02T10:55:14;6.07;;;5.47;;
22336;SDS011;14992;50.844;4.418;2023-05-02T11:00:48;7.40;;;5.35;;
22336;SDS011;14992;50.844;4.418;2023-05-02T11:06:25;6.55;;;5.82;;
22336;SDS011;14992;50.844;4.418;2023-05-02T11:11:58;7.60;;;5.85;;
22336;SDS011;14992;50.844;4.418;2023-05-02T11:14:43;7.90;;;5.85;;
22336;SDS011;14992;50.844;4.418;2023-05-02T11:17:16;7.90;;;6.15;;
22336;SDS011;14992;50.844;4.418;2023-05-02T11:22:57;6.68;;;6.07;;
22336;SDS011;14992;50.844;4.418;2023-05-02T11:25:34;9.65;;;6.45;;
22336;SDS011;14992;50.844;4.418;2023-05-02T11:28:07;11.18;;;6.63;;
22336;SDS011;14992;50.844;4.418;2023-05-02T11:30:56;10.25;;;6.07;;
22336;SDS011;14992;50.844;4.418;2023-05-02T11:33:26;8.65;;;5.75;;
22336;SDS011;14992;50.844;4.418;2023-05-02T11:35:56;7.53;;;6.75;;
22336;SDS011;14992;50.844;4.418;2023-05-02T11:38:34;9.35;;;6.63;;
22336;SDS011;14992;50.844;4.418;2023-05-02T11:41:05;6.88;;;6.22;;
22336;SDS011;14992;50.844;4.418;2023-05-02T11:43:34;8.68;;;6.55;;
22336;SDS011;14992;50.844;4.418;2023-05-02T11:46:05;8.07;;;6.70;;
22336;SDS011;14992;50.844;4.418;2023-05-02T11:48:34;10.27;;;7.03;;
22336;SDS011;14992;50.844;4.418;2023-05-02T11:51:03;11.40;;;6.90;;
22336;SDS011;14992;50.844;4.418;2023-05-02T11:53:38;8.25;;;5.78;;
22336;SDS011;14992;50.844;4.418;2023-05-02T11:56:08;7.57;;;6.43;;
22336;SDS011;14992;50.844;4.418;2023-05-02T11:58:37;9.63;;;6.38;;
22336;SDS011;14992;50.844;4.418;2023-05-02T12:01:10;11.45;;;6.28;;
22336;SDS011;14992;50.844;4.418;2023-05-02T12:03:40;9.05;;;6.10;;
22336;SDS011;14992;50.844;4.418;2023-05-02T12:06:09;10.55;;;6.18;;
22336;SDS011;14992;50.844;4.418;2023-05-02T12:08:41;8.38;;;5.20;;
22336;SDS011;14992;50.844;4.418;2023-05-02T12:11:11;7.30;;;5.68;;
22336;SDS011;14992;50.844;4.418;2023-05-02T12:13:45;9.38;;;5.95;;
22336;SDS011;14992;50.844;4.418;2023-05-02T12:16:16;7.07;;;5.03;;
22336;SDS011;14992;50.844;4.418;2023-05-02T12:18:45;9.07;;;5.32;;
22336;SDS011;14992;50.844;4.418;2023-05-02T12:21:15;6.35;;;4.78;;
22336;SDS011;14992;50.844;4.418;2023-05-02T12:23:46;7.72;;;4.85;;
22336;SDS011;14992;50.844;4.418;2023-05-02T12:26:15;8.70;;;6.20;;
22336;SDS011;14992;50.844;4.418;2023-05-02T12:28:48;7.50;;;5.65;;
22336;SDS011;14992;50.844;4.418;2023-05-02T12:33:46;12.20;;;5.85;;
22336;SDS011;14992;50.844;4.418;2023-05-02T12:36:16;5.75;;;4.57;;
22336;SDS011;14992;50.844;4.418;2023-05-02T12:38:50;9.52;;;4.80;;
22336;SDS011;14992;50.844;4.418;2023-05-02T12:41:31;8.05;;;5.07;;
22336;SDS011;14992;50.844;4.418;2023-05-02T12:44:00;11.73;;;5.30;;
22336;SDS011;14992;50.844;4.418;2023-05-02T12:46:29;17.17;;;6.18;;
22336;SDS011;14992;50.844;4.418;2023-05-02T12:49:02;11.07;;;5.40;;
22336;SDS011;14992;50.844;4.418;2023-05-02T12:51:32;16.13;;;5.88;;
22336;SDS011;14992;50.844;4.418;2023-05-02T12:54:04;11.43;;;5.65;;
22336;SDS011;14992;50.844;4.418;2023-05-02T12:56:40;7.50;;;5.30;;
22336;SDS011;14992;50.844;4.418;2023-05-02T12:59:10;7.10;;;4.65;;
22336;SDS011;14992;50.844;4.418;2023-05-02T13:01:54;13.95;;;5.43;;
22336;SDS011;14992;50.844;4.418;2023-05-02T13:04:32;8.63;;;4.35;;
22336;SDS011;14992;50.844;4.418;2023-05-02T13:07:01;7.65;;;4.00;;
22336;SDS011;14992;50.844;4.418;2023-05-02T13:09:32;8.05;;;4.40;;
22336;SDS011;14992;50.844;4.418;2023-05-02T13:12:01;10.60;;;4.30;;
22336;SDS011;14992;50.844;4.418;2023-05-02T13:14:30;8.77;;;5.22;;
22336;SDS011;14992;50.844;4.418;2023-05-02T13:16:59;4.75;;;4.13;;
22336;SDS011;14992;50.844;4.418;2023-05-02T13:19:28;6.63;;;3.92;;
22336;SDS011;14992;50.844;4.418;2023-05-02T13:21:57;5.68;;;4.35;;
22336;SDS011;14992;50.844;4.418;2023-05-02T13:24:26;11.35;;;4.47;;
22336;SDS011;14992;50.844;4.418;2023-05-02T13:26:57;7.75;;;3.80;;
22336;SDS011;14992;50.844;4.418;2023-05-02T13:29:25;8.30;;;5.10;;
22336;SDS011;14992;50.844;4.418;2023-05-02T13:31:58;15.80;;;5.72;;
22336;SDS011;14992;50.844;4.418;2023-05-02T13:34:27;28.20;;;7.63;;
22336;SDS011;14992;50.844;4.418;2023-05-02T13:36:55;8.05;;;4.38;;
22336;SDS011;14992;50.844;4.418;2023-05-02T13:39:24;16.88;;;5.75;;
22336;SDS011;14992;50.844;4.418;2023-05-02T13:41:53;6.28;;;4.20;;
22336;SDS011;14992;50.844;4.418;2023-05-02T13:44:24;9.38;;;4.53;;
22336;SDS011;14992;50.844;4.418;2023-05-02T13:46:52;9.50;;;3.97;;
22336;SDS011;14992;50.844;4.418;2023-05-02T13:49:21;8.73;;;4.57;;
22336;SDS011;14992;50.844;4.418;2023-05-02T13:51:50;7.78;;;4.43;;
22336;SDS011;14992;50.844;4.418;2023-05-02T13:54:22;4.70;;;3.83;;
22336;SDS011;14992;50.844;4.418;2023-05-02T13:59:21;8.02;;;4.30;;
22336;SDS011;14992;50.844;4.418;2023-05-02T14:01:51;6.00;;;3.95;;
22336;SDS011;14992;50.844;4.418;2023-05-02T14:04:20;8.48;;;5.05;;
22336;SDS011;14992;50.844;4.418;2023-05-02T14:06:49;6.72;;;3.85;;
22336;SDS011;14992;50.844;4.418;2023-05-02T14:09:18;5.40;;;3.78;;
22336;SDS011;14992;50.844;4.418;2023-05-02T14:11:47;6.10;;;4.30;;
22336;SDS011;14992;50.844;4.418;2023-05-02T14:14:16;7.32;;;3.50;;
22336;SDS011;14992;50.844;4.418;2023-05-02T14:16:45;7.72;;;3.30;;
22336;SDS011;14992;50.844;4.418;2023-05-02T14:19:17;8.13;;;3.65;;
22336;SDS011;14992;50.844;4.418;2023-05-02T14:21:47;6.32;;;3.80;;
22336;SDS011;14992;50.844;4.418;2023-05-02T14:24:16;6.90;;;3.50;;
22336;SDS011;14992;50.844;4.418;2023-05-02T14:26:47;3.72;;;3.40;;
22336;SDS011;14992;50.844;4.418;2023-05-02T14:29:16;6.13;;;3.80;;
22336;SDS011;14992;50.844;4.418;2023-05-02T14:31:46;7.28;;;3.50;;
22336;SDS011;14992;50.844;4.418;2023-05-02T14:34:15;5.40;;;3.13;;
22336;SDS011;14992;50.844;4.418;2023-05-02T14:36:47;8.90;;;3.85;;
22336;SDS011;14992;50.844;4.418;2023-05-02T14:39:16;5.93;;;3.90;;
22336;SDS011;14992;50.844;4.418;2023-05-02T14:41:45;6.03;;;4.80;;
22336;SDS011;14992;50.844;4.418;2023-05-02T14:44:14;10.15;;;5.05;;
22336;SDS011;14992;50.844;4.418;2023-05-02T14:46:44;6.70;;;4.53;;
22336;SDS011;14992;50.844;4.418;2023-05-02T14:49:13;5.72;;;4.53;;
22336;SDS011;14992;50.844;4.418;2023-05-02T14:51:44;8.15;;;4.20;;
22336;SDS011;14992;50.844;4.418;2023-05-02T14:54:14;9.05;;;5.38;;
22336;SDS011;14992;50.844;4.418;2023-05-02T14:56:43;8.98;;;3.97;;
22336;SDS011;14992;50.844;4.418;2023-05-02T14:59:12;8.30;;;3.85;;
22336;SDS011;14992;50.844;4.418;2023-05-02T15:01:41;8.25;;;3.90;;
22336;SDS011;14992;50.844;4.418;2023-05-02T15:04:10;6.68;;;3.80;;
22336;SDS011;14992;50.844;4.418;2023-05-02T15:06:39;7.38;;;3.95;;
22336;SDS011;14992;50.844;4.418;2023-05-02T15:09:10;7.93;;;4.47;;
22336;SDS011;14992;50.844;4.418;2023-05-02T15:11:39;7.03;;;3.90;;
22336;SDS011;14992;50.844;4.418;2023-05-02T15:14:07;6.15;;;4.40;;
22336;SDS011;14992;50.844;4.418;2023-05-02T15:16:36;7.65;;;4.10;;
22336;SDS011;14992;50.844;4.418;2023-05-02T15:19:06;11.50;;;5.03;;
22336;SDS011;14992;50.844;4.418;2023-05-02T15:21:35;11.07;;;4.35;;
22336;SDS011;14992;50.844;4.418;2023-05-02T15:24:04;6.90;;;3.65;;
22336;SDS011;14992;50.844;4.418;2023-05-02T15:26:34;7.93;;;4.07;;